sensor_id;sensor_type;location;lat;lon;timestamp;P1;P2;P0
45312;PMS7003;68267;51.540;5.854;2023-03-26T00:11:34;23.65;12.98;4.37
45312;PMS7003;68267;51.540;5.854;2023-03-26T00:24:54;35.9;9.82;4.37
45312;PMS7003;68267;51.540;5.854;2023-03-26T00:38:13;12.01;10.91;3.61
45312;PMS7003;68267;51.540;5.854;2023-03-26T00:51:33;30.25;10.36;3.71
45312;PMS7003;68267;51.540;5.854;2023-03-26T01:04:53;11.65;9.82;3.28
45312;PMS7003;68267;51.540;5.854;2023-03-26T01:18:12;32.77;8.95;3.28
45312;PMS7003;68267;51.540;5.854;2023-03-26T01:31:32;59.18;8.73;3.71
45312;PMS7003;68267;51.540;5.854;2023-03-26T01:44:52;64.71;9.6;3.39
45312;PMS7003;68267;51.540;5.854;2023-03-26T01:58:11;33.98;9.6;3.5
45312;PMS7003;68267;51.540;5.854;2023-03-26T02:11:31;22.45;8.62;3.39
45312;PMS7003;68267;51.540;5.854;2023-03-26T02:24:51;15.73;8.08;3.17
45312;PMS7003;68267;51.540;5.854;2023-03-26T02:38:10;14.41;8.51;3.5
45312;PMS7003;68267;51.540;5.854;2023-03-26T02:51:30;20.41;8.4;3.61
45312;PMS7003;68267;51.540;5.854;2023-03-26T03:04:49;21.37;8.08;3.71
45312;PMS7003;68267;51.540;5.854;2023-03-26T03:18:09;72.87;9.93;3.93
45312;PMS7003;68267;51.540;5.854;2023-03-26T03:31:29;31.33;10.36;4.04
45312;PMS7003;68267;51.540;5.854;2023-03-26T03:44:48;65.19;8.51;3.82
45312;PMS7003;68267;51.540;5.854;2023-03-26T03:58:08;18.73;10.15;3.71
45312;PMS7003;68267;51.540;5.854;2023-03-26T04:11:28;12.37;7.09;3.61
45312;PMS7003;68267;51.540;5.854;2023-03-26T04:24:47;23.89;8.18;3.61
45312;PMS7003;68267;51.540;5.854;2023-03-26T04:38:07;7.69;7.86;3.71
45312;PMS7003;68267;51.540;5.854;2023-03-26T04:51:26;4.93;6.44;3.39
45312;PMS7003;68267;51.540;5.854;2023-03-26T05:04:46;9.73;7.2;3.28
45312;PMS7003;68267;51.540;5.854;2023-03-26T05:18:06;8.05;5.46;3.5
45312;PMS7003;68267;51.540;5.854;2023-03-26T05:31:25;11.77;8.18;3.93
45312;PMS7003;68267;51.540;5.854;2023-03-26T05:44:45;4.93;7.75;4.37
45312;PMS7003;68267;51.540;5.854;2023-03-26T05:58:04;4.33;7.2;3.93
45312;PMS7003;68267;51.540;5.854;2023-03-26T06:11:24;8.65;6.55;3.93
45312;PMS7003;68267;51.540;5.854;2023-03-26T06:24:44;11.41;8.51;3.61
45312;PMS7003;68267;51.540;5.854;2023-03-26T06:38:03;56.78;7.09;3.71
45312;PMS7003;68267;51.540;5.854;2023-03-26T06:51:23;2.88;5.9;3.39
45312;PMS7003;68267;51.540;5.854;2023-03-26T07:04:43;21.25;6.88;3.61
45312;PMS7003;68267;51.540;5.854;2023-03-26T07:18:02;4.69;7.53;4.15
45312;PMS7003;68267;51.540;5.854;2023-03-26T07:31:22;11.41;6.99;3.71
45312;PMS7003;68267;51.540;5.854;2023-03-26T07:44:42;13.81;6.22;3.61
45312;PMS7003;68267;51.540;5.854;2023-03-26T07:58:01;2.4;5.46;3.17
45312;PMS7003;68267;51.540;5.854;2023-03-26T08:11:21;3.97;6.88;3.5
45312;PMS7003;68267;51.540;5.854;2023-03-26T08:24:41;6.25;5.9;4.15
45312;PMS7003;68267;51.540;5.854;2023-03-26T08:38:00;2.52;5.57;3.61
45312;PMS7003;68267;51.540;5.854;2023-03-26T08:51:20;5.29;4.7;3.61
45312;PMS7003;68267;51.540;5.854;2023-03-26T09:04:39;2.4;5.46;3.5
45312;PMS7003;68267;51.540;5.854;2023-03-26T09:17:59;18.37;4.7;2.95
45312;PMS7003;68267;51.540;5.854;2023-03-26T09:31:19;1.8;4.91;3.5
45312;PMS7003;68267;51.540;5.854;2023-03-26T09:44:38;1.68;4.8;3.5
45312;PMS7003;68267;51.540;5.854;2023-03-26T09:57:58;2.52;5.57;4.8
45312;PMS7003;68267;51.540;5.854;2023-03-26T10:11:18;3.24;6.22;4.8
45312;PMS7003;68267;51.540;5.854;2023-03-26T10:24:37;2.28;5.35;3.93
45312;PMS7003;68267;51.540;5.854;2023-03-26T10:37:57;1.56;4.7;3.5
45312;PMS7003;68267;51.540;5.854;2023-03-26T10:51:16;0.72;3.93;3.5
45312;PMS7003;68267;51.540;5.854;2023-03-26T11:04:36;3.97;4.26;3.61
45312;PMS7003;68267;51.540;5.854;2023-03-26T11:17:56;6.37;3.39;2.52
45312;PMS7003;68267;51.540;5.854;2023-03-26T11:31:15;5.17;3.28;2.62
45312;PMS7003;68267;51.540;5.854;2023-03-26T11:44:35;0.01;2.19;1.97
45312;PMS7003;68267;51.540;5.854;2023-03-26T11:57:54;0.12;3.39;2.62
45312;PMS7003;68267;51.540;5.854;2023-03-26T12:11:14;0.01;3.06;2.73
45312;PMS7003;68267;51.540;5.854;2023-03-26T12:24:34;8.53;3.17;2.73
45312;PMS7003;68267;51.540;5.854;2023-03-26T12:37:53;4.21;4.15;3.39
45312;PMS7003;68267;51.540;5.854;2023-03-26T12:51:13;0.01;2.84;2.62
45312;PMS7003;68267;51.540;5.854;2023-03-26T13:04:33;0.01;2.73;2.62
45312;PMS7003;68267;51.540;5.854;2023-03-26T13:17:52;0.12;3.39;3.28
45312;PMS7003;68267;51.540;5.854;2023-03-26T13:31:12;1.68;4.8;4.48
45312;PMS7003;68267;51.540;5.854;2023-03-26T13:44:32;1.32;4.48;3.82
45312;PMS7003;68267;51.540;5.854;2023-03-26T13:57:51;0.96;4.15;3.93
45312;PMS7003;68267;51.540;5.854;2023-03-26T14:11:11;6.49;7.09;6.55
45312;PMS7003;68267;51.540;5.854;2023-03-26T14:24:30;3.97;6.88;6.0
45312;PMS7003;68267;51.540;5.854;2023-03-26T14:37:50;7.21;6.77;5.9
45312;PMS7003;68267;51.540;5.854;2023-03-26T14:51:10;8.77;8.51;6.55
45312;PMS7003;68267;51.540;5.854;2023-03-26T15:04:29;9.61;8.08;6.0
45312;PMS7003;68267;51.540;5.854;2023-03-26T15:17:49;7.69;8.4;5.79
45312;PMS7003;68267;51.540;5.854;2023-03-26T15:31:09;5.89;8.62;6.0
45312;PMS7003;68267;51.540;5.854;2023-03-26T15:44:28;7.57;7.64;5.9
45312;PMS7003;68267;51.540;5.854;2023-03-26T15:57:48;11.41;6.88;4.37
45312;PMS7003;68267;51.540;5.854;2023-03-26T16:11:07;2.28;5.35;3.28
45312;PMS7003;68267;51.540;5.854;2023-03-26T16:24:27;2.04;5.13;3.06
45312;PMS7003;68267;51.540;5.854;2023-03-26T16:37:47;2.4;5.46;3.17
45312;PMS7003;68267;51.540;5.854;2023-03-26T16:51:06;4.69;4.26;2.84
45312;PMS7003;68267;51.540;5.854;2023-03-26T17:04:26;3.6;3.93;2.41
45312;PMS7003;68267;51.540;5.854;2023-03-26T17:17:46;1.44;4.59;2.62
45312;PMS7003;68267;51.540;5.854;2023-03-26T17:31:05;14.53;4.37;2.41
45312;PMS7003;68267;51.540;5.854;2023-03-26T17:44:25;2.64;3.71;2.08
45312;PMS7003;68267;51.540;5.854;2023-03-26T17:57:44;0.12;3.39;1.97
45312;PMS7003;68267;51.540;5.854;2023-03-26T18:11:04;0.72;3.93;1.75
45312;PMS7003;68267;51.540;5.854;2023-03-26T18:24:24;0.24;3.5;1.75
45312;PMS7003;68267;51.540;5.854;2023-03-26T18:37:43;17.77;3.71;1.64
45312;PMS7003;68267;51.540;5.854;2023-03-26T18:51:03;14.29;3.17;1.64
45312;PMS7003;68267;51.540;5.854;2023-03-26T19:04:23;12.73;2.95;1.64
45312;PMS7003;68267;51.540;5.854;2023-03-26T19:17:42;13.09;3.39;1.75
45312;PMS7003;68267;51.540;5.854;2023-03-26T19:31:02;0.01;3.17;1.64
45312;PMS7003;68267;51.540;5.854;2023-03-26T19:44:22;19.69;2.95;1.75
45312;PMS7003;68267;51.540;5.854;2023-03-26T19:57:41;13.33;3.5;1.54
45312;PMS7003;68267;51.540;5.854;2023-03-26T20:11:01;0.01;1.86;1.54
45312;PMS7003;68267;51.540;5.854;2023-03-26T20:24:20;0.01;3.06;1.54
45312;PMS7003;68267;51.540;5.854;2023-03-26T20:37:40;0.01;2.84;1.43
45312;PMS7003;68267;51.540;5.854;2023-03-26T20:51:00;0.01;2.73;1.64
45312;PMS7003;68267;51.540;5.854;2023-03-26T21:04:20;13.09;3.28;1.54
45312;PMS7003;68267;51.540;5.854;2023-03-26T21:17:39;12.73;3.06;1.54
45312;PMS7003;68267;51.540;5.854;2023-03-26T21:30:59;14.29;3.28;1.75
45312;PMS7003;68267;51.540;5.854;2023-03-26T21:44:18;27.73;2.41;1.43
45312;PMS7003;68267;51.540;5.854;2023-03-26T21:57:38;0.01;2.62;1.54
45312;PMS7003;68267;51.540;5.854;2023-03-26T22:10:58;45.26;3.39;1.64
45312;PMS7003;68267;51.540;5.854;2023-03-26T22:24:17;33.49;2.41;1.64
45312;PMS7003;68267;51.540;5.854;2023-03-26T22:37:37;19.57;2.62;1.64
45312;PMS7003;68267;51.540;5.854;2023-03-26T22:50:57;0.01;2.73;1.43
45312;PMS7003;68267;51.540;5.854;2023-03-26T23:04:16;0.01;2.95;1.54
45312;PMS7003;68267;51.540;5.854;2023-03-26T23:17:36;17.89;3.17;1.64
45312;PMS7003;68267;51.540;5.854;2023-03-26T23:30:56;24.01;3.93;1.64
45312;PMS7003;68267;51.540;5.854;2023-03-26T23:44:15;16.81;3.06;1.64
45312;PMS7003;68267;51.540;5.854;2023-03-26T23:57:35;0.24;3.5;1.64
